Date,TemperatureHighF,TemperatureAvgF,TemperatureLowF,DewpointHighF,DewpointAvgF,DewpointLowF,HumidityHigh,HumidityAvg,HumidityLow,PressureMaxIn,PressureMinIn,WindSpeedMaxMPH,WindSpeedAvgMPH,GustSpeedMaxMPH,PrecipitationSumIn
2013-4-1,51,39,27,27,26,24,94,61,36,0.00,40.00,15,9,24,0.00
2013-4-2,43,37,29,34,30,24,92,73,56,0.00,40.00,20,11,24,0.00
2013-4-3,54,42,34,35,30,27,97,65,39,0.00,40.00,24,14,31,0.00
2013-4-4,68,48,31,35,32,29,94,58,27,0.00,40.00,17,9,21,0.00
2013-4-5,76,60,46,36,32,27,56,36,19,0.00,40.00,32,10,42,0.00
2013-4-6,68,56,40,42,32,24,87,45,23,0.00,40.00,32,14,41,0.00
2013-4-7,69,56,46,46,34,29,89,45,24,0.00,40.00,22,9,27,0.00
2013-4-8,73,52,33,52,38,31,99,64,25,0.00,40.00,43,16,59,0.00
2013-4-9,32,17,13,31,14,9,96,86,83,0.00,40.00,41,30,52,0.00
2013-4-10,24,18,13,16,12,9,85,76,65,0.00,40.00,29,22,35,0.00
2013-4-11,45,32,14,32,23,9,91,71,59,0.00,40.00,30,16,40,0.00
2013-4-12,47,37,27,40,32,26,97,82,55,0.00,40.00,22,8,26,0.00
2013-4-13,68,47,28,41,34,28,99,67,23,0.00,40.00,22,11,29,0.00
2013-4-14,51,45,37,43,22,10,85,43,19,0.00,40.00,47,28,58,0.00
2013-4-15,37,32,29,31,25,21,98,74,52,0.00,40.00,18,11,24,0.00
2013-4-16,37,31,27,30,26,23,97,84,57,0.00,40.00,20,14,25,0.00
2013-4-17,33,28,24,31,26,20,97,93,81,0.00,40.00,16,10,22,0.00
2013-4-18,30,26,22,21,18,16,88,74,57,0.00,40.00,34,20,41,0.00
2013-4-19,53,39,24,29,21,15,70,48,27,0.00,40.00,27,17,32,0.00
2013-4-20,58,42,29,33,28,25,92,62,28,0.00,40.00,21,10,24,0.00
2013-4-21,65,51,39,43,36,28,94,62,27,0.00,40.00,21,8,28,0.00
2013-4-22,44,35,25,42,31,19,97,84,64,0.00,40.00,33,17,40,0.00
2013-4-23,39,28,23,24,18,15,87,68,37,0.00,40.00,17,11,21,0.00
2013-4-24,54,35,24,26,20,14,86,61,20,0.00,40.00,24,10,29,0.00
2013-4-25,71,50,28,31,25,19,82,43,19,0.00,40.00,24,10,29,0.00
2013-4-26,71,50,39,37,30,22,86,52,16,0.00,40.00,24,12,32,0.00
2013-4-27,79,54,35,35,29,22,79,43,15,0.00,40.00,17,8,21,0.00
2013-4-28,83,64,42,38,35,30,72,38,19,0.00,40.00,31,15,36,0.00
2013-4-29,83,66,48,45,38,33,58,37,21,0.00,40.00,25,10,34,0.00
2013-4-30,63,53,43,40,36,29,81,54,36,0.00,40.00,29,16,35,0.00